Time;durP1;ratioP1;P1;durP2;ratioP2;P2;SDS_P1;SDS_P2;PMS_P1;PMS_P2;Temp;Humidity;BMP_temperature;BMP_pressure;BME280_temperature;BME280_humidity;BME280_pressure;Samples;Min_cycle;Max_cycle;Signal;HPM_P1;HPM_P2
2022/06/28 00:01:21;;;;;;;;;;;;;;;17.33;68.25;100868.00;6157383;23;1274;-87
2022/06/28 00:03:46;;;;;;;;;;;;;;;17.43;67.83;100878.81;6158572;23;791;-87
2022/06/28 00:06:11;;;;;;;;;;;;;;;17.20;68.61;100879.94;6157832;23;1282;-87
2022/06/28 00:08:37;;;;;;;;;;;;;;;17.40;68.67;100880.25;6155893;23;1892;-88
2022/06/28 00:11:02;;;;;;;;;;;;;;;17.65;66.98;100877.97;6157765;23;1263;-87
2022/06/28 00:13:27;;;;;;;;;;;;;;;17.45;67.26;100882.06;6157797;23;996;-87
2022/06/28 00:16:04;;;;;;;;;;;;;;;17.44;67.29;100885.94;6157835;23;1067;-88
2022/06/28 00:18:30;;;;;;;;;;;;;;;17.52;67.35;100887.16;6155615;23;1290;-87
2022/06/28 00:20:55;;;;;;;;;;;;;;;17.60;67.45;100894.69;6157053;23;1212;-88
2022/06/28 00:23:20;;;;;;;;;;;;;;;17.68;66.85;100911.38;6157110;23;1008;-87
2022/06/28 00:25:45;;;;;;;;;;;;;;;17.59;66.48;100915.19;6157637;23;1027;-88
2022/06/28 00:28:10;;;;;;;;;;;;;;;17.54;66.64;100918.91;6155596;23;1885;-87
2022/06/28 00:30:36;;;;;;;;;;;;;;;17.59;66.00;100916.00;6157745;23;1290;-88
2022/06/28 00:33:01;;;;;;;;;;;;;;;17.55;65.74;100928.84;6154933;23;855;-87
2022/06/28 00:35:26;;;;;;;;;;;;;;;17.58;66.14;100939.28;6156456;23;1032;-88
2022/06/28 00:37:51;;;;;;;;;;;;;;;17.58;65.29;100946.78;6157490;23;1168;-87
2022/06/28 00:40:16;;;;;;;;;;;;;;;17.59;65.23;100952.00;6158204;23;1191;-87
2022/06/28 00:42:42;;;;;;;;;;;;;;;17.52;65.59;100962.72;6167562;23;984;-87
2022/06/28 00:45:07;;;;;;;;;;;;;;;17.52;66.25;100959.94;6154624;23;1244;-87
2022/06/28 00:47:33;;;;;;;;;;;;;;;17.48;66.43;100970.00;6155978;23;1952;-87
2022/06/28 00:49:58;;;;;;;;;;;;;;;17.43;65.87;100974.84;6155518;23;1284;-87
2022/06/28 00:52:23;;;;;;;;;;;;;;;17.18;66.12;100959.69;6154591;23;1275;-87
2022/06/28 00:54:48;;;;;;;;;;;;;;;17.37;67.18;100993.50;6154563;23;1278;-87
2022/06/28 00:57:13;;;;;;;;;;;;;;;17.40;67.50;100985.41;6154697;23;1355;-88
2022/06/28 00:59:39;;;;;;;;;;;;;;;17.44;66.43;100991.13;6154378;23;1276;-87
2022/06/28 01:02:04;;;;;;;;;;;;;;;17.23;67.34;100998.28;6156739;23;1182;-88
2022/06/28 01:04:29;;;;;;;;;;;;;;;17.26;66.48;101003.19;6154803;23;1305;-88
2022/06/28 01:06:54;;;;;;;;;;;;;;;17.02;67.42;100998.75;6154554;23;1915;-87
2022/06/28 01:09:20;;;;;;;;;;;;;;;17.15;67.44;100997.09;6155254;23;1334;-88
2022/06/28 01:11:45;;;;;;;;;;;;;;;16.89;67.41;100968.38;6155009;23;1248;-87
2022/06/28 01:14:10;;;;;;;;;;;;;;;16.90;68.96;100997.66;6155547;23;911;-87
2022/06/28 01:16:37;;;;;;;;;;;;;;;16.75;68.78;100998.81;6156317;23;1208;-87
2022/06/28 01:19:03;;;;;;;;;;;;;;;16.67;69.14;101002.31;6155706;23;1376;-87
2022/06/28 01:21:30;;;;;;;;;;;;;;;16.68;69.80;101003.09;6155899;23;1239;-88
2022/06/28 01:23:56;;;;;;;;;;;;;;;16.68;69.35;101003.09;6156412;23;850;-88
2022/06/28 01:26:21;;;;;;;;;;;;;;;16.65;69.06;101007.34;6156350;23;980;-88
2022/06/28 01:28:47;;;;;;;;;;;;;;;16.82;69.73;101009.47;6154416;23;1924;-87
2022/06/28 01:31:12;;;;;;;;;;;;;;;16.88;68.91;101000.72;6155781;23;1201;-87
2022/06/28 01:33:39;;;;;;;;;;;;;;;16.91;68.77;100988.25;6153964;23;1148;-88
2022/06/28 01:36:04;;;;;;;;;;;;;;;16.93;68.02;100984.00;6154325;23;1180;-88
2022/06/28 01:38:30;;;;;;;;;;;;;;;16.85;68.40;100989.47;6154256;23;1118;-87
2022/06/28 01:40:55;;;;;;;;;;;;;;;16.67;69.28;100991.25;6156082;23;1276;-87
2022/06/28 01:43:21;;;;;;;;;;;;;;;16.71;69.12;100983.16;6154374;23;1199;-87
2022/06/28 01:45:47;;;;;;;;;;;;;;;16.78;68.01;100983.53;6155053;23;1350;-88
2022/06/28 01:48:12;;;;;;;;;;;;;;;16.86;67.93;100983.63;6154556;23;1912;-88
2022/06/28 01:50:38;;;;;;;;;;;;;;;16.83;68.67;100986.22;6155748;23;1200;-87
2022/06/28 01:53:03;;;;;;;;;;;;;;;16.63;68.66;100987.47;6154786;23;1282;-87
2022/06/28 01:55:28;;;;;;;;;;;;;;;16.35;69.82;100985.81;6156170;23;855;-88
2022/06/28 01:57:53;;;;;;;;;;;;;;;16.41;70.23;100999.22;6155954;23;992;-88
2022/06/28 02:00:19;;;;;;;;;;;;;;;16.41;69.75;100992.88;6154019;23;1227;-88
2022/06/28 02:02:44;;;;;;;;;;;;;;;16.30;69.73;100996.97;6153748;23;710;-87
2022/06/28 02:05:09;;;;;;;;;;;;;;;16.38;70.15;101007.31;6153697;23;822;-87
2022/06/28 02:07:34;;;;;;;;;;;;;;;16.33;69.21;101011.00;6155515;23;1932;-88
2022/06/28 02:09:59;;;;;;;;;;;;;;;16.25;69.69;101018.03;6154409;23;1275;-86
2022/06/28 02:12:28;;;;;;;;;;;;;;;16.28;69.26;101020.19;6154892;23;1000;-87
2022/06/28 02:14:53;;;;;;;;;;;;;;;16.11;69.89;101025.50;6154549;23;1216;-87
2022/06/28 02:17:18;;;;;;;;;;;;;;;16.27;70.03;101024.06;6156592;23;779;-87
2022/06/28 02:19:43;;;;;;;;;;;;;;;16.45;70.36;101018.75;6155899;23;790;-87
2022/06/28 02:22:09;;;;;;;;;;;;;;;16.34;69.94;101011.78;6156128;23;1309;-87
2022/06/28 02:24:34;;;;;;;;;;;;;;;16.23;70.45;101017.53;6156111;23;1290;-87
2022/06/28 02:26:59;;;;;;;;;;;;;;;16.23;69.50;101011.19;6157418;23;1928;-86
2022/06/28 02:29:24;;;;;;;;;;;;;;;16.16;70.24;101006.06;6157510;23;878;-87
2022/06/28 02:31:49;;;;;;;;;;;;;;;15.93;70.86;101009.81;6157095;23;1300;-87
2022/06/28 02:40:21;;;;;;;;;;;;;;;16.07;70.34;101012.63;6156231;23;1055;-86
2022/06/28 02:42:28;;;;;;;;;;;;;;;15.70;70.84;101003.31;6155899;23;1128;-86
2022/06/28 02:44:53;;;;;;;;;;;;;;;15.75;71.06;100994.13;6154686;23;911;-87
2022/06/28 02:47:18;;;;;;;;;;;;;;;15.80;71.20;101002.34;6154386;23;1897;-87
2022/06/28 02:49:43;;;;;;;;;;;;;;;15.65;70.49;101003.41;6153916;23;1256;-86
2022/06/28 02:52:08;;;;;;;;;;;;;;;15.34;71.71;101005.81;6153907;23;1346;-87
2022/06/28 02:54:33;;;;;;;;;;;;;;;15.39;71.82;101007.69;6155974;23;936;-86
2022/06/28 02:56:59;;;;;;;;;;;;;;;15.34;71.53;101022.38;6155398;23;1088;-87
2022/06/28 02:59:24;;;;;;;;;;;;;;;15.33;71.51;101017.97;6155894;23;835;-87
2022/06/28 03:01:49;;;;;;;;;;;;;;;15.33;71.90;101029.00;6156901;23;1250;-87
2022/06/28 03:04:14;;;;;;;;;;;;;;;15.40;71.50;101021.16;6155471;23;1346;-87
2022/06/28 03:06:39;;;;;;;;;;;;;;;15.50;70.80;101026.50;6157227;23;977;-87
2022/06/28 03:09:04;;;;;;;;;;;;;;;15.24;70.74;101035.47;6154262;23;1934;-87
2022/06/28 03:11:30;;;;;;;;;;;;;;;15.28;70.56;101033.78;6157008;23;1180;-87
2022/06/28 03:13:55;;;;;;;;;;;;;;;14.98;71.02;101030.34;6155407;23;1315;-87
2022/06/28 03:16:20;;;;;;;;;;;;;;;15.05;71.45;101024.47;6157369;23;1005;-88
2022/06/28 03:18:45;;;;;;;;;;;;;;;15.21;70.78;101034.16;6157448;23;1031;-87
2022/06/28 03:21:10;;;;;;;;;;;;;;;15.19;70.49;101024.53;6155218;23;1190;-87
2022/06/28 03:23:35;;;;;;;;;;;;;;;15.30;70.20;101043.41;6155122;23;981;-87
2022/06/28 03:26:00;;;;;;;;;;;;;;;15.12;69.83;101044.22;6155959;23;885;-87
2022/06/28 03:28:25;;;;;;;;;;;;;;;15.17;70.43;101044.13;6158078;23;1893;-86
2022/06/28 03:30:51;;;;;;;;;;;;;;;14.81;70.72;101049.31;6156363;23;1215;-87
2022/06/28 03:33:16;;;;;;;;;;;;;;;14.90;70.52;101050.28;6156325;23;832;-86
2022/06/28 03:35:41;;;;;;;;;;;;;;;14.49;72.58;101047.22;6157928;23;874;-87
2022/06/28 03:38:06;;;;;;;;;;;;;;;14.80;72.71;101041.34;6154586;23;1307;-87
2022/06/28 03:40:31;;;;;;;;;;;;;;;14.49;71.33;101055.50;6155250;23;1172;-87
2022/06/28 03:42:56;;;;;;;;;;;;;;;14.46;72.34;101058.03;6156606;23;993;-87
2022/06/28 03:45:22;;;;;;;;;;;;;;;14.49;72.80;101058.25;6157118;23;1059;-87
2022/06/28 03:47:47;;;;;;;;;;;;;;;14.41;70.88;101063.56;6155606;23;1876;-87
2022/06/28 03:50:12;;;;;;;;;;;;;;;14.61;71.99;101063.34;6155943;23;1271;-87
2022/06/28 03:52:37;;;;;;;;;;;;;;;14.59;71.46;101062.81;6156459;23;1171;-87
2022/06/28 03:55:03;;;;;;;;;;;;;;;14.53;70.95;101061.25;6157331;23;1240;-87
2022/06/28 03:57:28;;;;;;;;;;;;;;;14.67;72.17;101060.25;6158955;23;1271;-87
2022/06/28 03:59:56;;;;;;;;;;;;;;;14.54;70.88;101066.47;6166750;23;1161;-87
2022/06/28 04:02:21;;;;;;;;;;;;;;;14.42;72.57;101062.47;6158344;23;838;-86
2022/06/28 04:04:46;;;;;;;;;;;;;;;14.35;72.69;101063.63;6156923;23;984;-87
2022/06/28 04:07:11;;;;;;;;;;;;;;;14.47;71.89;101071.47;6154612;23;1901;-88
2022/06/28 04:09:36;;;;;;;;;;;;;;;14.48;73.12;101069.56;6154982;23;1180;-87
2022/06/28 04:12:02;;;;;;;;;;;;;;;14.57;73.13;101074.13;6156260;23;1228;-87
2022/06/28 04:14:27;;;;;;;;;;;;;;;14.72;72.67;101067.59;6155166;23;1295;-87
2022/06/28 04:16:52;;;;;;;;;;;;;;;14.65;71.78;101073.47;6156964;23;988;-87
2022/06/28 04:19:17;;;;;;;;;;;;;;;14.39;73.88;101072.94;6155162;23;921;-87
2022/06/28 04:21:42;;;;;;;;;;;;;;;14.64;73.44;101077.34;6156692;23;1188;-88
2022/06/28 04:24:08;;;;;;;;;;;;;;;14.62;72.76;101074.09;6155177;23;1339;-87
2022/06/28 04:26:33;;;;;;;;;;;;;;;14.57;73.74;101084.31;6156441;23;1028;-87
2022/06/28 04:28:59;;;;;;;;;;;;;;;14.53;74.22;101086.84;6155509;23;1885;-87
2022/06/28 04:31:24;;;;;;;;;;;;;;;14.45;74.33;101083.94;6155244;23;1268;-87
2022/06/28 04:33:49;;;;;;;;;;;;;;;14.75;73.55;101087.16;6155268;23;1020;-88
2022/06/28 04:36:14;;;;;;;;;;;;;;;14.95;73.14;101090.78;6154478;23;1141;-88
2022/06/28 04:38:39;;;;;;;;;;;;;;;15.09;72.54;101086.97;6156871;23;763;-88
2022/06/28 04:41:04;;;;;;;;;;;;;;;15.19;71.53;101083.28;6155301;23;1299;-88
2022/06/28 04:43:29;;;;;;;;;;;;;;;15.10;71.84;101087.81;6157324;23;930;-88
2022/06/28 04:45:55;;;;;;;;;;;;;;;14.86;72.64;101084.28;6157712;23;1020;-88
2022/06/28 04:48:20;;;;;;;;;;;;;;;14.76;71.94;101090.72;6155992;23;2289;-87
2022/06/28 04:50:45;;;;;;;;;;;;;;;14.80;72.18;101088.22;6158452;23;1570;-87
2022/06/28 04:53:10;;;;;;;;;;;;;;;14.79;73.90;101081.88;6154472;23;1164;-87
2022/06/28 04:55:35;;;;;;;;;;;;;;;14.95;73.14;101085.25;6154534;23;1072;-87
2022/06/28 04:58:01;;;;;;;;;;;;;;;15.07;72.78;101089.22;6154780;23;1165;-87
2022/06/28 05:00:28;;;;;;;;;;;;;;;15.03;72.75;101081.84;6156059;23;1196;-87
2022/06/28 05:02:53;;;;;;;;;;;;;;;14.95;73.42;101083.31;6154847;23;1329;-87
2022/06/28 05:05:18;;;;;;;;;;;;;;;15.03;74.05;101082.66;6154628;23;1053;-87
2022/06/28 05:07:43;;;;;;;;;;;;;;;15.19;74.01;101075.00;6156740;23;1901;-87
2022/06/28 05:10:08;;;;;;;;;;;;;;;15.23;73.46;101072.44;6155128;23;1000;-88
2022/06/28 05:12:34;;;;;;;;;;;;;;;15.16;74.37;101078.34;6155955;23;1276;-88
2022/06/28 05:14:59;;;;;;;;;;;;;;;15.26;74.95;101077.38;6155281;23;1197;-87
2022/06/28 05:17:24;;;;;;;;;;;;;;;15.29;75.24;101082.31;6157849;23;952;-87
2022/06/28 05:19:50;;;;;;;;;;;;;;;15.40;74.74;101079.09;6155417;23;1188;-88
2022/06/28 05:22:15;;;;;;;;;;;;;;;15.48;75.22;101078.41;6156832;23;1322;-86
2022/06/28 05:24:40;;;;;;;;;;;;;;;15.62;74.71;101077.69;6156624;23;1039;-87
2022/06/28 05:27:06;;;;;;;;;;;;;;;15.69;74.52;101084.47;6155158;23;1903;-86
2022/06/28 05:29:31;;;;;;;;;;;;;;;15.71;75.26;101081.41;6156005;23;1230;-88
2022/06/28 05:31:56;;;;;;;;;;;;;;;15.76;74.95;101075.81;6157523;23;1270;-90
2022/06/28 05:34:22;;;;;;;;;;;;;;;15.86;74.86;101072.88;6160136;23;1172;-89
2022/06/28 05:36:47;;;;;;;;;;;;;;;15.92;74.81;101079.94;6158871;23;1404;-90
2022/06/28 05:39:12;;;;;;;;;;;;;;;15.93;74.84;101069.72;6161595;23;1044;-88
2022/06/28 05:41:38;;;;;;;;;;;;;;;15.98;75.05;101069.66;6157776;23;1211;-89
2022/06/28 05:44:04;;;;;;;;;;;;;;;15.96;75.32;101069.97;6158781;23;1195;-89
2022/06/28 05:46:29;;;;;;;;;;;;;;;16.03;75.46;101064.03;6156837;23;1164;-89
2022/06/28 05:48:54;;;;;;;;;;;;;;;16.04;75.05;101068.44;6157422;23;1912;-89
2022/06/28 05:51:19;;;;;;;;;;;;;;;16.04;75.25;101063.75;6156430;23;1283;-89
2022/06/28 05:53:44;;;;;;;;;;;;;;;16.10;74.71;101059.75;6157863;23;976;-89
2022/06/28 05:56:10;;;;;;;;;;;;;;;16.19;74.40;101060.69;6156227;23;783;-89
2022/06/28 05:58:35;;;;;;;;;;;;;;;16.22;74.36;101060.09;6156233;23;1208;-89
2022/06/28 06:01:00;;;;;;;;;;;;;;;16.24;73.94;101063.38;6155944;23;1263;-89
2022/06/28 06:03:25;;;;;;;;;;;;;;;16.27;73.60;101062.75;6156258;23;997;-89
2022/06/28 06:05:51;;;;;;;;;;;;;;;16.32;73.68;101063.78;6160922;23;810;-90
2022/06/28 06:08:16;;;;;;;;;;;;;;;16.38;73.62;101060.63;6159162;23;1888;-89
2022/06/28 06:10:41;;;;;;;;;;;;;;;16.38;73.83;101059.81;6159418;23;1176;-89
2022/06/28 06:13:06;;;;;;;;;;;;;;;16.42;73.83;101060.81;6163272;23;826;-89
2022/06/28 06:15:32;;;;;;;;;;;;;;;16.49;73.72;101061.25;6159143;23;1307;-89
2022/06/28 06:17:57;;;;;;;;;;;;;;;16.51;72.30;101061.75;6157573;23;1176;-89
2022/06/28 06:20:22;;;;;;;;;;;;;;;16.51;71.64;101067.28;6159238;23;1199;-89
2022/06/28 06:22:47;;;;;;;;;;;;;;;16.55;71.92;101062.78;6162358;23;1035;-89
2022/06/28 06:25:13;;;;;;;;;;;;;;;16.56;71.75;101068.00;6157622;23;1317;-89
2022/06/28 06:27:38;;;;;;;;;;;;;;;16.57;73.18;101077.13;6159396;23;1897;-88
2022/06/28 06:30:05;;;;;;;;;;;;;;;16.51;70.87;101062.56;6165460;23;1271;-89
2022/06/28 06:32:30;;;;;;;;;;;;;;;16.58;72.17;101060.25;6162632;23;1228;-88
2022/06/28 06:34:56;;;;;;;;;;;;;;;16.61;71.79;101061.56;6162383;23;1199;-89
2022/06/28 06:37:21;;;;;;;;;;;;;;;16.63;71.11;101067.63;6163484;23;934;-89
2022/06/28 06:39:46;;;;;;;;;;;;;;;16.66;69.83;101061.50;6160118;23;1023;-87
2022/06/28 06:42:11;;;;;;;;;;;;;;;16.71;70.27;101064.13;6158823;23;1260;-88
2022/06/28 06:44:36;;;;;;;;;;;;;;;16.72;69.71;101063.03;6156587;23;1448;-87
2022/06/28 06:47:02;;;;;;;;;;;;;;;16.79;70.04;101065.34;6159513;23;1889;-88
2022/06/28 06:49:27;;;;;;;;;;;;;;;16.78;69.77;101067.31;6169440;23;1395;-88
2022/06/28 06:51:52;;;;;;;;;;;;;;;16.81;68.71;101068.66;6155836;23;1243;-88
2022/06/28 06:54:17;;;;;;;;;;;;;;;16.87;66.66;101064.63;6156205;23;1180;-87
2022/06/28 06:56:43;;;;;;;;;;;;;;;16.91;65.14;101069.25;6155818;23;1291;-87
2022/06/28 06:59:10;;;;;;;;;;;;;;;16.95;65.60;101074.97;6156395;23;1360;-88
2022/06/28 07:01:35;;;;;;;;;;;;;;;16.95;66.85;101080.50;6157933;23;1267;-88
2022/06/28 07:04:01;;;;;;;;;;;;;;;16.97;65.20;101076.31;6155852;23;1168;-87
2022/06/28 07:06:26;;;;;;;;;;;;;;;17.01;63.92;101073.75;6155995;23;1220;-86
2022/06/28 07:08:51;;;;;;;;;;;;;;;17.08;65.26;101078.88;6157511;23;1884;-85
2022/06/28 07:11:16;;;;;;;;;;;;;;;17.10;64.84;101080.16;6155812;23;1196;-88
2022/06/28 07:13:42;;;;;;;;;;;;;;;17.12;67.16;101082.63;6156262;23;1294;-87
2022/06/28 07:16:07;;;;;;;;;;;;;;;17.19;66.31;101078.31;6156481;23;1327;-85
2022/06/28 07:18:32;;;;;;;;;;;;;;;17.26;67.01;101077.91;6155168;23;1041;-87
2022/06/28 07:20:58;;;;;;;;;;;;;;;17.36;66.88;101077.66;6156210;23;1303;-87
2022/06/28 07:23:23;;;;;;;;;;;;;;;17.37;66.36;101079.28;6155617;23;1406;-87
2022/06/28 07:25:48;;;;;;;;;;;;;;;17.43;65.63;101068.94;6157213;23;992;-87
2022/06/28 07:28:14;;;;;;;;;;;;;;;17.48;65.36;101074.34;6156177;23;1922;-87
2022/06/28 07:30:39;;;;;;;;;;;;;;;17.55;63.19;101060.88;6157995;23;1283;-88
2022/06/28 07:33:04;;;;;;;;;;;;;;;17.58;62.52;101066.63;6157642;23;1016;-87
2022/06/28 07:35:29;;;;;;;;;;;;;;;17.63;63.26;101065.69;6156538;23;1371;-87
2022/06/28 07:37:54;;;;;;;;;;;;;;;17.63;62.90;101060.16;6156676;23;1033;-88
2022/06/28 07:40:20;;;;;;;;;;;;;;;17.66;63.65;101065.09;6157379;23;1251;-88
2022/06/28 07:42:45;;;;;;;;;;;;;;;17.64;63.75;101065.41;6156828;23;825;-87
2022/06/28 07:45:10;;;;;;;;;;;;;;;17.64;63.49;101062.63;6155584;23;1374;-88
2022/06/28 07:47:35;;;;;;;;;;;;;;;17.62;64.05;101062.13;6155564;23;1884;-87
2022/06/28 07:52:44;;;;;;;;;;;;;;;17.51;61.54;101074.56;6157162;23;893;-87
2022/06/28 07:55:10;;;;;;;;;;;;;;;17.61;61.01;101063.22;6155872;23;1303;-88
2022/06/28 07:57:35;;;;;;;;;;;;;;;17.67;59.31;101056.47;6158181;23;889;-88
2022/06/28 08:00:00;;;;;;;;;;;;;;;17.71;59.47;101049.16;6155599;23;1307;-87
2022/06/28 08:02:26;;;;;;;;;;;;;;;17.76;60.81;101054.59;6155161;23;1288;-87
2022/06/28 08:04:51;;;;;;;;;;;;;;;17.77;57.81;101050.69;6155964;23;1327;-87
2022/06/28 08:07:16;;;;;;;;;;;;;;;17.86;60.27;101061.81;6155756;23;1893;-88
2022/06/28 08:09:41;;;;;;;;;;;;;;;17.89;59.36;101060.34;6155638;23;1180;-88
2022/06/28 08:12:07;;;;;;;;;;;;;;;17.93;60.82;101053.06;6154938;23;1164;-87
2022/06/28 08:14:32;;;;;;;;;;;;;;;17.98;58.97;101050.16;6155229;23;1163;-87
2022/06/28 08:16:57;;;;;;;;;;;;;;;18.06;54.70;101052.16;6157669;23;841;-87
2022/06/28 08:19:23;;;;;;;;;;;;;;;18.03;55.57;101050.03;6155891;23;1216;-87
2022/06/28 08:21:49;;;;;;;;;;;;;;;18.05;58.61;101050.50;6155687;23;1227;-89
2022/06/28 08:24:14;;;;;;;;;;;;;;;18.14;56.72;101045.84;6156784;23;806;-87
2022/06/28 08:26:42;;;;;;;;;;;;;;;18.21;57.52;101037.88;6157207;23;813;-87
2022/06/28 08:29:14;;;;;;;;;;;;;;;18.25;56.07;101036.13;6158526;23;1924;-87
2022/06/28 08:31:39;;;;;;;;;;;;;;;18.25;54.44;101046.38;6156042;23;1232;-87
2022/06/28 08:34:05;;;;;;;;;;;;;;;18.36;53.89;101043.03;6155647;23;1343;-88
2022/06/28 08:36:30;;;;;;;;;;;;;;;18.42;54.47;101050.06;6156604;23;1193;-87
2022/06/28 08:38:56;;;;;;;;;;;;;;;18.41;53.18;101039.28;6157065;23;821;-87
2022/06/28 08:41:22;;;;;;;;;;;;;;;18.44;51.73;101045.03;6156434;23;1318;-87
2022/06/28 08:43:47;;;;;;;;;;;;;;;18.37;54.73;101041.06;6156862;23;1016;-86
2022/06/28 08:46:14;;;;;;;;;;;;;;;18.43;52.04;101034.25;6155026;23;1248;-88
2022/06/28 08:48:41;;;;;;;;;;;;;;;18.54;53.44;101030.84;6156729;23;1885;-88
2022/06/28 08:51:07;;;;;;;;;;;;;;;18.60;52.05;101039.06;6156173;23;1231;-87
2022/06/28 08:53:33;;;;;;;;;;;;;;;18.56;50.36;101038.84;6154138;23;1284;-88
2022/06/28 08:55:58;;;;;;;;;;;;;;;18.53;51.34;101051.41;6155137;23;1204;-87
2022/06/28 08:58:23;;;;;;;;;;;;;;;18.60;51.90;101039.88;6154699;23;945;-88
2022/06/28 09:00:49;;;;;;;;;;;;;;;18.70;52.35;101047.91;6155659;23;1352;-87
2022/06/28 09:03:15;;;;;;;;;;;;;;;18.64;51.38;101042.81;6156220;23;1209;-88
2022/06/28 09:05:40;;;;;;;;;;;;;;;18.63;52.93;101042.00;6155386;23;1321;-87
2022/06/28 09:08:05;;;;;;;;;;;;;;;18.66;52.25;101043.31;6155107;23;1884;-87
2022/06/28 09:10:31;;;;;;;;;;;;;;;18.69;53.02;101034.38;6154344;23;1176;-87
2022/06/28 09:13:13;;;;;;;;;;;;;;;18.82;51.51;101041.72;6155941;23;1207;-87
2022/06/28 09:16:11;;;;;;;;;;;;;;;18.77;51.53;101033.56;6154563;23;1347;-87
2022/06/28 09:18:36;;;;;;;;;;;;;;;18.82;55.17;101033.41;6076050;23;1213;-87
2022/06/28 09:21:03;;;;;;;;;;;;;;;18.92;55.10;101041.44;6153145;23;1184;-87
2022/06/28 09:23:30;;;;;;;;;;;;;;;19.04;55.28;101030.53;6154847;23;1165;-87
2022/06/28 09:25:57;;;;;;;;;;;;;;;18.98;53.45;101036.53;6155798;23;1255;-87
2022/06/28 09:28:29;;;;;;;;;;;;;;;18.74;55.24;101042.53;6156810;23;1889;-88
2022/06/28 09:31:15;;;;;;;;;;;;;;;18.77;54.83;101044.66;6156732;23;1160;-86
2022/06/28 09:33:44;;;;;;;;;;;;;;;18.73;54.45;101038.94;6155786;23;945;-88
2022/06/28 09:36:13;;;;;;;;;;;;;;;18.87;55.56;101034.09;6153697;23;1196;-88
2022/06/28 09:38:38;;;;;;;;;;;;;;;19.05;55.02;101031.34;6153813;23;1184;-87
2022/06/28 09:41:03;;;;;;;;;;;;;;;19.16;51.69;101040.97;6129926;23;1321;-87
2022/06/28 09:43:31;;;;;;;;;;;;;;;19.15;49.37;101034.59;6155115;23;1284;-88
2022/06/28 09:45:56;;;;;;;;;;;;;;;19.18;50.29;101035.94;6156139;23;806;-87
2022/06/28 09:48:22;;;;;;;;;;;;;;;19.23;50.71;101035.75;6153846;23;1926;-87
2022/06/28 09:50:56;;;;;;;;;;;;;;;19.26;50.81;101038.72;6153078;23;1183;-87
2022/06/28 09:53:22;;;;;;;;;;;;;;;19.22;49.91;101036.91;6153481;23;1260;-87
2022/06/28 09:55:55;;;;;;;;;;;;;;;19.31;51.27;101032.16;6152171;23;1298;-87
2022/06/28 09:58:20;;;;;;;;;;;;;;;19.43;50.32;101042.63;6154449;23;1233;-88
2022/06/28 10:00:45;;;;;;;;;;;;;;;19.34;50.84;101025.97;6156181;23;1331;-88
2022/06/28 10:03:11;;;;;;;;;;;;;;;19.38;50.91;101032.53;6154089;23;1348;-86
2022/06/28 10:05:36;;;;;;;;;;;;;;;19.47;51.57;101033.38;6154407;23;1085;-88
2022/06/28 10:08:02;;;;;;;;;;;;;;;19.57;50.21;101038.56;6153910;23;1901;-88
2022/06/28 10:10:28;;;;;;;;;;;;;;;19.72;51.19;101036.44;6155002;23;1212;-87
2022/06/28 10:15:53;;;;;;;;;;;;;;;19.45;51.33;101026.47;6156470;23;625;-88
2022/06/28 10:18:20;;;;;;;;;;;;;;;19.44;51.46;101038.72;6152879;23;1327;-87
2022/06/28 10:20:46;;;;;;;;;;;;;;;19.51;52.41;101039.06;6155568;23;1208;-87
2022/06/28 10:23:23;;;;;;;;;;;;;;;19.65;52.14;101032.19;6153868;23;1338;-88
2022/06/28 10:26:08;;;;;;;;;;;;;;;19.52;50.38;101030.41;6153474;23;1032;-87
2022/06/28 10:28:37;;;;;;;;;;;;;;;19.40;51.06;101018.28;6153644;23;1922;-88
2022/06/28 10:31:31;;;;;;;;;;;;;;;19.44;49.61;101022.06;6153894;23;1277;-88
2022/06/28 10:33:57;;;;;;;;;;;;;;;19.34;50.18;101025.97;6158681;23;833;-87
2022/06/28 10:36:24;;;;;;;;;;;;;;;19.22;46.77;101028.59;6157103;23;1224;-88
2022/06/28 10:39:01;;;;;;;;;;;;;;;19.31;48.85;101020.28;6153913;23;1273;-88
2022/06/28 10:41:37;;;;;;;;;;;;;;;19.63;47.95;101017.00;6153542;23;1242;-88
2022/06/28 10:44:28;;;;;;;;;;;;;;;19.87;47.45;101022.03;6155188;23;794;-88
2022/06/28 10:47:03;;;;;;;;;;;;;;;19.90;46.17;101015.81;6137075;23;1214;-87
2022/06/28 10:49:44;;;;;;;;;;;;;;;19.89;45.26;101009.44;6153652;23;1927;-87
2022/06/28 10:52:14;;;;;;;;;;;;;;;19.96;41.71;101014.50;6153234;23;1227;-87
2022/06/28 10:54:59;;;;;;;;;;;;;;;20.01;43.16;101014.31;6154689;23;778;-87
2022/06/28 10:57:26;;;;;;;;;;;;;;;20.12;43.51;101012.00;6152573;23;1189;-88
2022/06/28 10:59:52;;;;;;;;;;;;;;;20.15;45.68;101008.56;6157930;23;838;-86
2022/06/28 11:02:18;;;;;;;;;;;;;;;20.30;45.46;101000.47;6156909;23;1225;-87
2022/06/28 11:04:44;;;;;;;;;;;;;;;20.41;46.07;101005.72;6155338;23;885;-88
2022/06/28 11:07:19;;;;;;;;;;;;;;;20.41;44.23;101002.94;6155690;23;1881;-88
2022/06/28 11:09:44;;;;;;;;;;;;;;;20.38;46.76;100999.66;6157440;23;984;-87
2022/06/28 11:12:11;;;;;;;;;;;;;;;20.55;47.99;100990.41;6156270;23;1267;-88
2022/06/28 11:14:49;;;;;;;;;;;;;;;20.62;46.15;100987.09;6153821;23;1253;-88
2022/06/28 11:17:15;;;;;;;;;;;;;;;20.71;46.92;100985.91;6158293;23;1367;-87
2022/06/28 11:19:50;;;;;;;;;;;;;;;20.82;46.59;100977.16;6157806;23;1320;-88
2022/06/28 11:22:36;;;;;;;;;;;;;;;20.75;47.26;100978.53;6157768;23;1271;-88
2022/06/28 11:25:03;;;;;;;;;;;;;;;20.78;43.69;100969.47;6130249;23;1353;-88
2022/06/28 11:27:28;;;;;;;;;;;;;;;20.76;44.33;100963.44;6157313;23;1884;-88
2022/06/28 11:29:59;;;;;;;;;;;;;;;20.83;45.45;100967.66;6155929;23;1181;-88
2022/06/28 11:32:35;;;;;;;;;;;;;;;20.73;45.17;100968.88;6154995;23;1381;-87
2022/06/28 11:35:02;;;;;;;;;;;;;;;20.43;43.58;100956.09;6154674;23;779;-88
2022/06/28 11:37:28;;;;;;;;;;;;;;;20.26;43.93;100954.19;6154689;23;1226;-88
2022/06/28 11:40:00;;;;;;;;;;;;;;;20.18;44.83;100952.28;6157279;23;1355;-90
2022/06/28 11:42:25;;;;;;;;;;;;;;;20.07;45.31;100954.63;6156923;23;1192;-89
2022/06/28 11:44:51;;;;;;;;;;;;;;;20.03;42.55;100950.88;6157117;23;795;-88
2022/06/28 11:47:17;;;;;;;;;;;;;;;20.18;43.07;100952.28;6155712;23;1888;-89
2022/06/28 11:49:42;;;;;;;;;;;;;;;20.32;41.42;100945.38;6156596;23;807;-89
2022/06/28 11:52:12;;;;;;;;;;;;;;;20.42;42.53;100943.34;6155291;23;1276;-89
2022/06/28 11:54:37;;;;;;;;;;;;;;;20.58;45.14;100950.81;6157124;23;882;-88
2022/06/28 11:57:12;;;;;;;;;;;;;;;20.80;46.46;100946.06;6155732;23;1294;-89
2022/06/28 11:59:54;;;;;;;;;;;;;;;21.02;44.03;100934.59;6155895;23;1204;-89
2022/06/28 12:02:39;;;;;;;;;;;;;;;21.23;43.80;100941.00;6156490;23;1290;-89
2022/06/28 12:05:04;;;;;;;;;;;;;;;21.19;43.29;100937.25;6156992;23;912;-89
2022/06/28 12:07:33;;;;;;;;;;;;;;;21.10;43.82;100948.44;6157146;23;1936;-89
2022/06/28 12:09:59;;;;;;;;;;;;;;;20.97;44.65;100938.41;6155419;23;1235;-89
2022/06/28 12:12:24;;;;;;;;;;;;;;;21.10;40.34;100934.53;6155264;23;1261;-90
2022/06/28 12:14:55;;;;;;;;;;;;;;;21.34;41.43;100931.06;6155145;23;961;-89
2022/06/28 12:17:20;;;;;;;;;;;;;;;21.31;39.21;100928.97;6155239;23;1205;-89
2022/06/28 12:19:45;;;;;;;;;;;;;;;21.22;40.36;100927.41;6155097;23;1032;-89
2022/06/28 12:22:12;;;;;;;;;;;;;;;21.22;43.78;100928.22;6156646;23;1129;-89
2022/06/28 12:24:43;;;;;;;;;;;;;;;21.26;41.73;100926.41;6154750;23;1248;-90
2022/06/28 12:27:09;;;;;;;;;;;;;;;21.23;41.67;100921.50;6154451;23;1259;-89
2022/06/28 12:29:34;;;;;;;;;;;;;;;21.09;41.82;100896.72;6156720;23;794;-87
2022/06/28 12:32:00;;;;;;;;;;;;;;;21.38;42.11;100915.28;6154927;23;1275;-87
2022/06/28 12:34:25;;;;;;;;;;;;;;;21.55;41.21;100908.72;6154552;23;1174;-87
2022/06/28 12:36:50;;;;;;;;;;;;;;;21.78;39.82;100912.72;6156381;23;877;-86
2022/06/28 12:39:15;;;;;;;;;;;;;;;21.94;41.13;100912.88;6155285;23;1056;-87
2022/06/28 12:41:41;;;;;;;;;;;;;;;22.08;41.96;100902.22;6154756;23;1271;-86
2022/06/28 12:44:06;;;;;;;;;;;;;;;22.19;40.21;100900.59;6153633;23;1294;-88
2022/06/28 12:46:32;;;;;;;;;;;;;;;22.05;39.14;100894.53;6156485;23;1028;-88
2022/06/28 12:48:57;;;;;;;;;;;;;;;22.02;40.26;100891.66;6156451;23;1930;-87
2022/06/28 12:51:22;;;;;;;;;;;;;;;22.08;41.45;100896.66;6156625;23;1262;-89
2022/06/28 12:53:48;;;;;;;;;;;;;;;22.12;41.37;100896.75;6156076;23;1059;-89
2022/06/28 12:56:15;;;;;;;;;;;;;;;22.14;41.99;100884.09;6155030;23;1229;-89